PST: 00:56 MST: 01:56 CST: 02:56 EST: 03:56 LDN: 08:56 UTC: 07:56
User Agent: CCBot/2.0 (https://commoncrawl.org/faq/)
IP Address: 3.226.243.130
Hostname: ec2-3-226-243-130.compute-1.amazonaws.com

METAR:
KBFI 220753Z 14004KT 10SM OVC041 17/13 A2995 RMK AO2 SLP142 T01720133 402000144 $
KBFI 220653Z 17003KT 10SM BKN042 18/13 A2997 RMK AO2 SLP148 T01780133 $
KBFI 220553Z 00000KT 10SM OVC042 18/13 A2998 RMK AO2 SLP152 T01830128 10194 20178 $
KBFI 220453Z 14004KT 10SM OVC043 18/13 A2999 RMK AO2 SLP156 T01830128 $

TAF:
KBFI 220529Z 2206/2306 VRB04KT P6SM OVC045
FM 221300 16006KT P6SM -RA OVC025
FM 221500 17008KT 6SM -RA BR SCT010 OVC018 TEMPO 2215/2218 4SM BR BKN009
FM 222200 19006KT P6SM VCSH BKN025

KBFI 220256Z 2203/2224 VRB04KT P6SM BKN045 OVC200
FM 221200 16007KT P6SM -RA SCT020 OVC030
FM 221500 17008KT 6SM -RA BR OVC020
FM 221800 17007KT 4SM -RA BR OVC010
FM 222100 19006KT 6SM -RA BR OVC020

KBFI 212338Z 2200/2224 20004KT P6SM BKN035
FM 220200 17003KT P6SM BKN050
FM 221200 16007KT P6SM -RA SCT020 OVC030
FM 221500 17008KT 6SM -RA BR OVC020
FM 221800 17007KT 4SM -RA BR OVC010
FM 222100 19006KT 6SM -RA BR OVC020

KBFI 211730Z 2118/2218 14005KT P6SM BKN015 BKN020
FM 211900 19004KT P6SM SCT010 BKN030
FM 212200 20004KT P6SM SCT050 BKN250
FM 220500 17004KT P6SM OVC050
FM 221200 16007KT P6SM -RA SCT020 OVC025

KBFI 211135Z 2112/2212 14005KT P6SM OVC012
FM 211900 19004KT P6SM SCT010 BKN030
FM 212200 20004KT P6SM SCT050 SCT250
FM 220500 17004KT P6SM OVC050

KBFI 210926Z 2109/2206 VRB05KT P6SM BKN010 OVC045
FM 211400 VRB04KT P6SM BKN009 OVC015
FM 211900 19004KT P6SM SCT010 BKN022
FM 212200 20004KT P6SM SCT050 SCT250
FM 220500 VRB04KT P6SM SCT060 BKN200

KBFI 210536Z 2106/2206 VRB05KT P6SM FEW030 SCT060 SCT250
FM 211100 VRB04KT P6SM BKN015
FM 211400 VRB04KT P6SM BKN009 OVC015
FM 211900 19004KT P6SM SCT010 BKN022
FM 212200 20004KT P6SM SCT050 SCT250
FM 220500 VRB04KT P6SM SCT060 BKN200